Time;durP1;ratioP1;P1;durP2;ratioP2;P2;SDS_P1;SDS_P2;PMS_P1;PMS_P2;Temp;Humidity;BMP_temperature;BMP_pressure;BME280_temperature;BME280_humidity;BME280_pressure;Samples;Min_cycle;Max_cycle;Signal;HPM_P1;HPM_P2
2021/05/27 00:01:12;;;;;;;5.72;3.00;;;13.90;99.90;;;13.49;99.51;101553.25;4119456;28;20034;-67
2021/05/27 00:03:12;;;;;;;3.95;2.78;;;13.90;99.90;;;13.46;99.52;101546.44;4121264;28;20033;-67
2021/05/27 00:05:14;;;;;;;6.55;2.78;;;13.90;99.90;;;13.48;99.74;101546.28;4121245;28;20034;-67
2021/05/27 00:07:15;;;;;;;6.18;3.00;;;13.90;99.90;;;13.48;99.75;101556.88;4121037;28;20125;-67
2021/05/27 00:09:15;;;;;;;6.40;3.28;;;13.90;99.90;;;13.47;99.53;101550.72;4122462;28;20027;-67
2021/05/27 00:11:16;;;;;;;5.53;2.83;;;13.90;99.90;;;13.51;99.03;101549.44;4122370;28;20062;-67
2021/05/27 00:13:17;;;;;;;4.38;2.42;;;13.90;99.90;;;13.49;99.43;101547.94;4122203;28;20022;-67
2021/05/27 00:15:21;;;;;;;4.97;2.60;;;14.00;99.90;;;13.49;99.86;101554.09;4122167;28;20114;-67
2021/05/27 00:17:22;;;;;;;4.10;3.03;;;13.90;99.90;;;13.52;99.53;101552.94;4122417;28;20038;-67
2021/05/27 00:19:23;;;;;;;5.75;3.38;;;13.90;99.90;;;13.55;99.69;101555.28;4122307;28;20031;-67
2021/05/27 00:21:24;;;;;;;7.13;2.83;;;13.90;99.90;;;13.54;99.74;101545.66;4122353;28;20486;-67
2021/05/27 00:23:25;;;;;;;6.10;3.10;;;13.90;99.90;;;13.50;99.46;101554.91;4137202;28;20125;-67
2021/05/27 00:25:26;;;;;;;5.20;2.90;;;13.90;99.90;;;13.45;99.65;101554.53;4122303;28;20573;-67
2021/05/27 00:27:27;;;;;;;5.15;3.50;;;13.90;99.90;;;13.44;99.52;101553.69;4122218;28;20042;-67
2021/05/27 00:29:28;;;;;;;5.05;3.10;;;13.90;99.90;;;13.38;100.00;101550.84;4121864;28;20122;-67
2021/05/27 00:31:29;;;;;;;5.75;3.17;;;13.80;99.90;;;13.38;100.00;101554.31;4122162;28;20039;-67
2021/05/27 00:33:30;;;;;;;5.32;3.00;;;13.80;99.90;;;13.40;100.00;101555.00;4122232;28;20113;-67
2021/05/27 00:35:31;;;;;;;5.75;3.13;;;13.80;99.90;;;13.39;100.00;101549.84;4122060;28;20027;-67
2021/05/27 00:37:32;;;;;;;4.78;2.85;;;13.80;99.90;;;13.42;100.00;101557.50;4121852;28;20030;-67
2021/05/27 00:39:33;;;;;;;5.00;3.70;;;13.80;99.90;;;13.44;99.68;101558.19;4122100;28;20033;-67
2021/05/27 00:41:34;;;;;;;7.07;3.03;;;13.80;99.90;;;13.42;99.81;101557.50;4122065;28;20039;-67
2021/05/27 00:43:35;;;;;;;5.97;2.95;;;13.80;99.90;;;13.41;99.66;101550.53;4122015;28;20125;-67
2021/05/27 00:45:36;;;;;;;6.18;3.38;;;13.80;99.90;;;13.42;99.99;101552.19;4122046;28;20058;-67
2021/05/27 00:47:38;;;;;;;5.90;3.47;;;13.80;99.90;;;13.43;99.65;101556.50;4122220;28;20490;-67
2021/05/27 00:49:39;;;;;;;7.72;4.90;;;13.90;99.90;;;13.43;99.56;101553.88;4121951;28;20106;-67
2021/05/27 00:51:40;;;;;;;5.63;3.78;;;13.80;99.90;;;13.40;99.99;101551.53;4121778;28;20027;-67
2021/05/27 00:53:41;;;;;;;9.82;3.95;;;13.80;99.90;;;13.32;99.62;101547.81;4121714;28;20030;-67
2021/05/27 00:55:42;;;;;;;6.95;4.10;;;13.80;99.90;;;13.40;99.86;101555.00;4120853;28;20039;-67
2021/05/27 00:57:43;;;;;;;5.57;3.38;;;13.80;99.90;;;13.35;100.00;101551.16;4120638;28;20498;-67
2021/05/27 00:59:44;;;;;;;4.85;3.25;;;13.80;99.90;;;13.32;100.00;101549.63;4120313;28;20027;-67
2021/05/27 01:01:51;;;;;;;4.85;3.13;;;13.80;99.90;;;13.35;100.00;101556.47;4120332;28;20026;-67
2021/05/27 01:03:52;;;;;;;5.03;3.33;;;13.80;99.90;;;13.36;100.00;101552.81;4121383;28;20051;-67
2021/05/27 01:05:53;;;;;;;4.80;3.47;;;13.80;99.90;;;13.41;100.00;101566.44;4121815;28;20552;-67
2021/05/27 01:07:53;;;;;;;5.50;3.17;;;13.80;99.90;;;13.40;99.88;101559.47;4121507;28;20035;-67
2021/05/27 01:09:54;;;;;;;4.68;3.20;;;13.80;99.90;;;13.39;99.92;101555.16;4121519;28;20497;-67
2021/05/27 01:11:55;;;;;;;6.25;3.15;;;13.80;99.90;;;13.27;100.00;101554.56;4120309;28;20039;-67
2021/05/27 01:13:56;;;;;;;6.70;4.00;;;13.80;99.90;;;13.38;99.59;101553.50;4120120;28;20097;-67
2021/05/27 01:15:57;;;;;;;7.03;3.28;;;13.80;99.90;;;13.25;100.00;101557.38;4121364;28;20538;-67
2021/05/27 01:18:11;;;;;;;6.85;3.70;;;13.80;99.90;;;13.19;100.00;101550.03;4121307;28;20109;-67
2021/05/27 01:20:13;;;;;;;4.75;3.00;;;13.70;99.90;;;13.15;100.00;101555.78;4121318;28;20037;-67
2021/05/27 01:22:14;;;;;;;4.30;3.03;;;13.70;99.90;;;13.09;100.00;101551.94;4121142;28;20041;-67
2021/05/27 01:24:15;;;;;;;8.02;4.15;;;13.60;99.90;;;13.07;100.00;101559.19;4108755;28;20035;-67
2021/05/27 01:26:16;;;;;;;6.53;3.75;;;13.60;99.90;;;13.03;100.00;101556.97;4104147;28;20035;-67
2021/05/27 01:28:18;;;;;;;5.97;3.97;;;13.60;99.90;;;12.97;100.00;101547.81;4105145;28;20035;-67
2021/05/27 01:30:19;;;;;;;6.70;3.88;;;13.60;99.90;;;12.91;100.00;101548.44;4105481;28;20390;-67
2021/05/27 01:32:21;;;;;;;5.07;3.47;;;13.50;99.90;;;12.93;100.00;101546.44;4105337;28;20097;-67
2021/05/27 01:34:21;;;;;;;3.75;3.33;;;13.50;99.90;;;13.01;100.00;101557.13;4105170;28;20066;-67
2021/05/27 01:36:22;;;;;;;6.43;3.60;;;13.50;99.90;;;13.05;100.00;101555.84;4105097;28;20035;-67
2021/05/27 01:38:25;;;;;;;5.88;3.20;;;13.60;99.90;;;13.11;100.00;101560.56;4105338;28;20435;-67
2021/05/27 01:40:26;;;;;;;8.43;3.50;;;13.60;99.90;;;13.16;100.00;101558.28;4105178;28;20031;-67
2021/05/27 01:42:28;;;;;;;6.35;3.22;;;13.60;99.90;;;13.11;100.00;101560.56;4105084;28;20069;-67
2021/05/27 01:44:29;;;;;;;5.30;2.92;;;13.60;99.90;;;13.15;100.00;101561.91;4104749;28;20023;-67
2021/05/27 01:46:30;;;;;;;6.45;3.75;;;13.60;99.90;;;13.14;100.00;101554.94;4105103;28;20090;-67
2021/05/27 01:48:32;;;;;;;5.88;3.40;;;13.70;99.90;;;13.11;100.00;101552.59;4105038;28;20396;-67
2021/05/27 01:50:34;;;;;;;4.68;3.42;;;13.60;99.90;;;13.16;100.00;101552.16;4104827;28;20067;-67
2021/05/27 01:52:34;;;;;;;6.32;3.92;;;13.60;99.90;;;13.18;100.00;101556.31;4104966;28;20082;-67
2021/05/27 01:54:38;;;;;;;5.60;4.32;;;13.70;99.90;;;13.19;100.00;101552.69;4105095;28;20509;-67
2021/05/27 01:56:38;;;;;;;5.65;4.28;;;13.70;99.90;;;13.26;100.00;101548.44;4105057;28;20054;-67
2021/05/27 01:58:40;;;;;;;8.20;4.82;;;13.70;99.90;;;13.36;100.00;101552.81;4104623;28;20035;-67
2021/05/27 02:00:44;;;;;;;5.00;3.90;;;13.70;99.90;;;13.38;100.00;101554.31;4104972;28;20019;-67
2021/05/27 02:02:46;;;;;;;4.93;4.10;;;13.70;99.90;;;13.37;100.00;101554.47;4104942;28;20067;-67
2021/05/27 02:04:47;;;;;;;5.93;4.50;;;13.80;99.90;;;13.32;100.00;101551.47;4104661;28;20055;-67
2021/05/27 02:06:47;;;;;;;8.23;4.13;;;13.80;99.90;;;13.39;100.00;101552.50;4104852;28;20042;-67
2021/05/27 02:09:09;;;;;;;5.78;4.07;;;13.80;99.90;;;13.43;100.00;101553.88;4107250;28;20483;-67
2021/05/27 02:11:09;;;;;;;5.93;3.83;;;13.80;99.90;;;13.50;100.00;101561.03;4120748;28;20113;-67
2021/05/27 02:13:10;;;;;;;5.70;3.60;;;13.80;99.90;;;13.50;100.00;101560.22;4120671;28;20073;-67
2021/05/27 02:15:12;;;;;;;6.88;4.00;;;13.90;99.90;;;13.52;100.00;101555.59;4120591;28;20034;-67
2021/05/27 02:17:13;;;;;;;9.00;4.20;;;13.90;99.90;;;13.53;100.00;101551.97;4120591;28;20036;-67
2021/05/27 02:19:14;;;;;;;5.13;3.70;;;13.90;99.90;;;13.46;100.00;101554.38;4120651;28;20097;-67
2021/05/27 02:21:15;;;;;;;6.95;3.60;;;13.90;99.90;;;13.44;100.00;101558.19;4120509;28;20069;-67
2021/05/27 02:23:16;;;;;;;4.03;3.38;;;13.90;99.90;;;13.38;100.00;101550.84;4120782;28;20043;-67
2021/05/27 02:25:17;;;;;;;6.68;3.40;;;13.80;99.90;;;13.41;100.00;101561.16;4120383;28;20035;-67
2021/05/27 02:27:18;;;;;;;5.50;2.92;;;13.80;99.90;;;13.39;100.00;101549.84;4120711;28;20172;-67
2021/05/27 02:29:19;;;;;;;6.18;3.53;;;13.80;99.90;;;13.42;100.00;101549.53;4120359;28;20497;-67
2021/05/27 02:31:22;;;;;;;5.80;3.30;;;13.80;99.90;;;13.41;100.00;101550.53;4120510;28;20035;-67
2021/05/27 02:33:23;;;;;;;5.53;3.13;;;13.80;99.90;;;13.43;100.00;101548.56;4120369;28;20031;-67
2021/05/27 02:35:23;;;;;;;4.65;2.85;;;13.80;99.90;;;13.34;100.00;101534.44;4120278;28;20058;-67
2021/05/27 02:37:24;;;;;;;4.90;3.22;;;13.90;99.90;;;13.40;100.00;101543.56;4120223;28;20022;-67
2021/05/27 02:39:26;;;;;;;5.15;3.42;;;13.90;99.90;;;13.37;100.00;101543.88;4120337;28;20023;-67
2021/05/27 02:41:27;;;;;;;4.55;3.20;;;13.80;99.90;;;13.43;100.00;101544.09;4120325;28;20055;-67
2021/05/27 02:43:29;;;;;;;7.15;3.92;;;13.80;99.90;;;13.46;100.00;101545.59;4120201;28;20037;-67
2021/05/27 02:45:30;;;;;;;4.30;3.45;;;13.90;99.90;;;13.46;100.00;101542.94;4120183;28;20090;-67
2021/05/27 02:47:31;;;;;;;5.05;3.25;;;13.90;99.90;;;13.44;100.00;101544.94;4120305;28;20038;-67
2021/05/27 02:49:31;;;;;;;4.10;3.35;;;13.90;99.90;;;13.46;100.00;101545.59;4120245;28;20078;-67
2021/05/27 02:51:33;;;;;;;6.10;3.78;;;13.90;99.90;;;13.45;100.00;101539.47;4134877;28;20030;-67
2021/05/27 02:53:34;;;;;;;7.07;3.60;;;13.90;99.90;;;13.40;100.00;101543.56;4120120;28;20506;-67
2021/05/27 02:55:35;;;;;;;5.28;3.17;;;13.80;99.90;;;13.32;100.00;101536.38;4120154;28;20505;-67
2021/05/27 02:57:36;;;;;;;3.65;2.90;;;13.80;99.90;;;13.40;100.00;101543.56;4120185;28;20027;-67
2021/05/27 02:59:37;;;;;;;6.72;3.50;;;13.80;99.90;;;13.36;100.00;101535.09;4119844;28;20035;-67
2021/05/27 03:01:38;;;;;;;4.15;2.83;;;13.80;99.90;;;13.40;100.00;101532.97;4119943;28;20035;-67
2021/05/27 03:03:39;;;;;;;4.00;3.45;;;13.80;99.90;;;13.35;100.00;101537.91;4119724;28;20059;-67
2021/05/27 03:05:40;;;;;;;4.15;2.83;;;13.80;99.90;;;13.33;100.00;101540.69;4120270;28;20035;-67
2021/05/27 03:07:41;;;;;;;3.58;2.92;;;13.80;99.90;;;13.32;100.00;101539.88;4120040;28;20073;-67
2021/05/27 03:09:42;;;;;;;4.90;2.85;;;13.80;99.90;;;13.32;100.00;101536.38;4119923;28;20038;-67
2021/05/27 03:11:43;;;;;;;6.35;2.58;;;13.80;99.90;;;13.32;100.00;101539.88;4119703;28;20031;-67
2021/05/27 03:13:44;;;;;;;3.47;2.60;;;13.70;99.90;;;13.30;100.00;101533.91;4119763;28;20031;-67
2021/05/27 03:15:45;;;;;;;3.85;2.65;;;13.70;99.90;;;13.24;100.00;101531.88;4119888;28;20037;-67
2021/05/27 03:17:46;;;;;;;4.10;2.25;;;13.70;99.90;;;13.16;100.00;101510.63;4119842;28;20035;-67
2021/05/27 03:19:47;;;;;;;3.15;2.40;;;13.70;99.90;;;13.26;100.00;101532.53;4119747;28;20086;-67
2021/05/27 03:21:48;;;;;;;2.65;2.28;;;13.70;99.90;;;13.24;100.00;101525.72;4119825;28;20101;-67
2021/05/27 03:23:49;;;;;;;2.95;2.63;;;13.70;99.90;;;13.21;100.00;101524.22;4119802;28;20034;-67
2021/05/27 03:25:51;;;;;;;3.03;2.42;;;13.70;99.90;;;13.14;100.00;101530.31;4119823;28;20469;-67
2021/05/27 03:27:52;;;;;;;3.97;2.28;;;13.60;99.90;;;13.08;100.00;101526.41;4119636;28;20034;-67
2021/05/27 03:29:53;;;;;;;2.78;2.42;;;13.60;99.90;;;13.10;100.00;101532.41;4119639;28;20046;-67
2021/05/27 03:31:54;;;;;;;3.70;2.30;;;13.60;99.90;;;13.02;100.00;101508.47;4119728;28;20027;-67
2021/05/27 03:33:55;;;;;;;3.03;2.25;;;13.60;99.90;;;13.15;100.00;101531.94;4119774;28;20058;-67
2021/05/27 03:35:56;;;;;;;2.90;2.25;;;13.60;99.90;;;13.15;100.00;101532.78;4119577;28;20027;-67
2021/05/27 03:37:57;;;;;;;3.00;2.10;;;13.60;99.90;;;13.14;100.00;101531.09;4121700;28;20023;-67
2021/05/27 03:40:13;;;;;;;4.72;2.35;;;13.60;99.90;;;13.13;100.00;101518.88;4123120;28;20042;-67
2021/05/27 03:42:14;;;;;;;3.00;2.50;;;13.60;99.90;;;13.15;100.00;101529.28;4122984;28;20093;-67
2021/05/27 03:44:15;;;;;;;3.28;2.45;;;13.60;99.90;;;13.15;100.00;101530.13;4122617;28;20027;-67
2021/05/27 03:46:16;;;;;;;3.58;2.80;;;13.60;99.90;;;13.13;100.00;101533.94;4123110;28;20318;-67
2021/05/27 03:48:17;;;;;;;4.50;2.75;;;13.60;99.90;;;13.13;100.00;101534.75;4123093;28;20042;-67
2021/05/27 03:50:21;;;;;;;4.25;3.00;;;13.50;99.90;;;13.17;100.00;101537.94;4137722;28;20026;-67
2021/05/27 03:52:22;;;;;;;4.80;2.20;;;13.50;99.90;;;13.14;100.00;101535.59;4122628;28;20035;-67
2021/05/27 03:54:23;;;;;;;5.18;2.42;;;13.60;99.90;;;13.11;100.00;101533.25;4123022;28;20435;-67
2021/05/27 03:56:24;;;;;;;2.80;2.15;;;13.50;99.90;;;13.08;100.00;101534.38;4122866;28;20027;-67
2021/05/27 04:00:45;;;;;;;3.08;2.55;;;13.50;99.90;;;13.10;100.00;101532.41;4122628;28;20029;-67
2021/05/27 04:02:48;;;;;;;4.60;2.40;;;13.50;99.90;;;13.13;100.00;101533.94;4122873;28;20022;-67
2021/05/27 04:07:14;;;;;;;2.85;2.15;;;13.60;99.90;;;13.10;100.00;101521.00;4122613;28;20049;-67
2021/05/27 04:09:15;;;;;;;2.63;2.28;;;13.60;99.90;;;13.12;100.00;101533.09;4121579;28;20426;-67
2021/05/27 04:11:16;;;;;;;3.55;2.70;;;13.60;99.90;;;13.13;100.00;101534.75;4122490;28;20039;-67
2021/05/27 04:13:17;;;;;;;3.10;2.80;;;13.60;99.90;;;13.15;100.00;101532.78;4122222;28;20033;-66
2021/05/27 04:15:28;;;;;;;6.25;2.88;;;13.60;99.90;;;13.21;100.00;101541.94;4122773;28;20457;-67
2021/05/27 04:17:29;;;;;;;4.30;2.67;;;13.60;99.90;;;13.24;100.00;101542.47;4122344;28;20030;-67
2021/05/27 04:19:30;;;;;;;4.43;2.90;;;13.60;99.90;;;13.14;100.00;101539.06;4122313;28;20035;-67
2021/05/27 04:21:31;;;;;;;7.20;3.53;;;13.60;99.90;;;13.19;100.00;101536.81;4122243;28;20037;-67
2021/05/27 04:23:36;;;;;;;4.93;3.55;;;13.60;99.90;;;13.09;100.00;101536.03;4122428;28;20501;-67
2021/05/27 04:25:38;;;;;;;3.47;2.63;;;13.60;99.90;;;13.06;100.00;101538.97;4122388;28;20034;-67
2021/05/27 04:27:40;;;;;;;5.80;3.65;;;13.50;99.90;;;13.07;100.00;101538.00;4122346;28;20053;-67
2021/05/27 04:29:41;;;;;;;5.10;2.85;;;13.50;99.90;;;13.11;100.00;101543.84;4122056;28;20034;-67
2021/05/27 04:31:42;;;;;;;3.72;2.97;;;13.60;99.90;;;13.11;100.00;101549.97;4122264;28;20035;-67
2021/05/27 04:33:43;;;;;;;3.85;2.95;;;13.60;99.90;;;13.15;100.00;101546.03;4122234;28;20393;-67
2021/05/27 04:35:44;;;;;;;3.45;2.90;;;13.60;99.90;;;13.16;100.00;101547.69;4122114;28;20034;-67
2021/05/27 04:37:45;;;;;;;3.30;2.65;;;13.60;99.90;;;13.18;100.00;101540.41;4122012;28;20023;-67
2021/05/27 04:39:46;;;;;;;3.83;2.92;;;13.60;99.90;;;13.15;100.00;101539.88;4122167;28;20105;-67
2021/05/27 04:41:46;;;;;;;5.05;3.50;;;13.60;99.90;;;13.14;100.00;101549.66;4122143;28;20034;-67
2021/05/27 04:43:53;;;;;;;2.53;2.33;;;13.60;99.90;;;13.12;100.00;101543.69;4121761;28;20035;-67
2021/05/27 04:45:54;;;;;;;4.60;3.00;;;13.60;99.90;;;13.10;100.00;101545.66;4122200;28;20066;-67
2021/05/27 04:47:56;;;;;;;3.13;2.80;;;13.60;99.90;;;13.15;100.00;101540.72;4121783;28;20035;-67
2021/05/27 04:49:57;;;;;;;3.20;2.80;;;13.60;99.90;;;13.15;100.00;101546.03;4121900;28;20038;-67
2021/05/27 04:51:58;;;;;;;4.70;3.10;;;13.60;99.90;;;13.18;100.00;101544.88;4121533;28;20034;-67
2021/05/27 04:53:59;;;;;;;7.82;3.63;;;13.70;99.90;;;13.20;100.00;101549.03;4121808;28;20030;-67
2021/05/27 04:56:01;;;;;;;4.53;3.90;;;13.70;99.90;;;13.20;100.00;101549.03;4121967;28;20458;-67
2021/05/27 04:58:03;;;;;;;5.25;3.70;;;13.70;99.90;;;13.19;100.00;101546.56;4121766;28;20023;-67
2021/05/27 05:00:08;;;;;;;6.57;4.25;;;13.70;99.90;;;13.18;100.00;101553.66;4121383;28;20030;-67
2021/05/27 05:02:09;;;;;;;8.05;4.75;;;13.70;99.90;;;13.17;100.00;101557.28;4121577;28;20068;-67
2021/05/27 05:04:10;;;;;;;7.10;4.85;;;13.70;99.90;;;13.17;100.00;101559.94;4121313;28;20046;-67
2021/05/27 05:06:11;;;;;;;6.60;4.53;;;13.70;99.90;;;13.19;100.00;101558.00;4121565;28;20026;-67
2021/05/27 05:08:12;;;;;;;6.90;4.85;;;13.70;99.90;;;13.26;100.00;101563.53;4121431;28;20038;-67
2021/05/27 05:10:14;;;;;;;7.20;4.68;;;13.70;99.90;;;13.05;100.00;101541.78;4121436;28;20034;-67
2021/05/27 05:12:15;;;;;;;6.03;3.65;;;13.70;99.90;;;13.13;100.00;101558.59;4121675;28;20046;-67
2021/05/27 05:14:16;;;;;;;5.45;4.57;;;13.70;99.90;;;13.20;100.00;101564.94;4121251;28;20023;-67
2021/05/27 05:16:16;;;;;;;7.07;5.20;;;13.70;99.90;;;13.18;100.00;101568.72;4121416;28;20341;-67
2021/05/27 05:18:18;;;;;;;5.53;4.82;;;13.70;99.90;;;13.24;100.00;101571.59;4121498;28;20031;-67
2021/05/27 05:20:41;;;;;;;5.70;4.68;;;13.70;99.90;;;13.12;100.00;101548.97;4121443;28;20114;-67
2021/05/27 05:22:42;;;;;;;5.85;4.75;;;13.70;99.90;;;13.22;100.00;101568.28;4120821;28;20089;-67
2021/05/27 05:24:43;;;;;;;5.03;4.43;;;13.80;99.90;;;13.29;100.00;101568.47;4121135;28;20034;-67
2021/05/27 05:26:44;;;;;;;7.35;5.10;;;13.80;99.90;;;13.32;100.00;101572.66;4121239;28;20022;-67
2021/05/27 05:28:45;;;;;;;9.65;5.95;;;13.80;99.90;;;13.38;100.00;101572.06;4120831;28;20122;-67
2021/05/27 05:30:45;;;;;;;5.72;4.72;;;13.80;99.90;;;13.39;100.00;101574.53;4121018;28;20037;-67
2021/05/27 05:32:47;;;;;;;4.60;3.90;;;13.90;99.90;;;13.38;100.00;101580.81;4120642;28;20126;-67
2021/05/27 05:34:48;;;;;;;6.13;4.35;;;13.90;99.90;;;13.40;100.00;101581.50;4121144;28;20023;-67
2021/05/27 05:36:49;;;;;;;5.40;3.92;;;13.90;99.90;;;13.42;100.00;101581.34;4121277;28;20070;-67
2021/05/27 05:38:50;;;;;;;7.55;4.43;;;13.90;99.90;;;13.44;100.00;101582.03;4121058;28;20023;-67
2021/05/27 05:40:51;;;;;;;7.30;4.70;;;13.90;99.90;;;13.50;100.00;101584.06;4120781;28;20037;-67
2021/05/27 05:42:53;;;;;;;7.63;5.38;;;14.00;99.90;;;13.61;100.00;101589.97;4121091;28;20023;-67
2021/05/27 05:44:54;;;;;;;12.25;5.97;;;14.00;99.90;;;13.69;100.00;101579.41;4121018;28;20146;-67
2021/05/27 05:46:55;;;;;;;6.55;5.05;;;14.20;99.90;;;13.64;100.00;101586.16;4120950;28;20027;-67
2021/05/27 05:48:56;;;;;;;6.25;4.70;;;14.20;99.90;;;13.65;100.00;101588.63;4120794;28;20062;-67
2021/05/27 05:50:57;;;;;;;6.00;4.85;;;14.10;99.90;;;13.67;100.00;101589.34;4120993;28;20051;-67
2021/05/27 05:52:58;;;;;;;7.30;4.38;;;14.20;99.90;;;13.65;100.00;101587.84;4121042;28;20026;-67
2021/05/27 05:54:59;;;;;;;5.07;4.03;;;14.20;99.90;;;13.60;100.00;101596.22;4120948;28;20505;-67
2021/05/27 05:57:00;;;;;;;6.10;4.38;;;14.20;99.90;;;13.65;100.00;101593.13;4120778;28;20105;-67
2021/05/27 05:59:01;;;;;;;6.75;3.63;;;14.20;99.90;;;13.66;100.00;101587.66;4120506;28;20027;-68
2021/05/27 06:01:02;;;;;;;6.35;4.40;;;14.20;99.90;;;13.63;100.00;101595.09;4115502;28;20839;-67
2021/05/27 06:03:04;;;;;;;9.32;4.32;;;14.20;99.90;;;13.54;100.00;101580.09;4103339;28;20463;-68
2021/05/27 06:05:06;;;;;;;6.47;4.38;;;14.20;99.90;;;13.78;100.00;101597.03;4104278;28;20546;-68
2021/05/27 06:07:07;;;;;;;6.45;5.07;;;14.30;99.90;;;13.79;100.00;101597.88;4107347;28;20034;-67
2021/05/27 06:09:08;;;;;;;6.05;4.30;;;14.30;99.90;;;13.86;100.00;101606.84;4120560;28;20024;-68
2021/05/27 06:11:09;;;;;;;5.65;4.95;;;14.40;99.90;;;13.85;100.00;101611.34;4120633;28;20033;-67
2021/05/27 06:13:10;;;;;;;6.13;5.50;;;14.40;99.90;;;13.96;98.76;101606.75;4120523;28;20082;-67
2021/05/27 06:15:11;;;;;;;5.90;4.70;;;14.40;99.90;;;13.83;99.41;101607.16;4120172;28;21297;-67
2021/05/27 06:17:12;;;;;;;6.03;3.70;;;14.40;99.90;;;13.83;99.93;101615.09;4119166;28;20026;-67
2021/05/27 06:19:14;;;;;;;6.80;5.00;;;14.40;99.90;;;13.91;99.02;101606.38;4120384;28;20070;-67
2021/05/27 06:21:15;;;;;;;5.85;4.68;;;14.40;99.90;;;13.84;99.38;101611.47;4120310;28;20053;-68
2021/05/27 06:23:16;;;;;;;7.82;5.03;;;14.40;99.90;;;13.78;99.65;101612.09;4120514;28;20026;-68
2021/05/27 06:25:18;;;;;;;5.50;4.95;;;14.40;99.90;;;13.76;100.00;101614.94;4120365;28;20023;-68
2021/05/27 06:27:19;;;;;;;8.20;5.28;;;14.40;99.90;;;13.75;99.79;101612.41;4120155;28;20035;-68
2021/05/27 06:29:20;;;;;;;7.25;5.28;;;14.40;99.90;;;13.83;100.00;101609.81;4120144;28;20482;-68
2021/05/27 06:31:20;;;;;;;11.80;6.03;;;14.50;99.90;;;13.88;99.15;101607.53;4120418;28;20482;-67
2021/05/27 06:33:22;;;;;;;7.22;5.35;;;14.50;99.90;;;13.97;98.76;101609.25;4120007;28;20490;-68
2021/05/27 06:35:23;;;;;;;6.75;6.03;;;14.50;99.90;;;14.07;98.58;101617.91;4120320;28;20034;-68
2021/05/27 06:37:24;;;;;;;9.48;6.30;;;14.60;99.90;;;14.17;96.57;101600.06;4120181;28;20102;-68
2021/05/27 06:39:25;;;;;;;7.75;5.80;;;14.80;99.90;;;14.35;96.65;101615.94;4120314;28;20372;-67
2021/05/27 06:41:26;;;;;;;8.68;6.00;;;14.90;99.90;;;14.40;96.85;101613.63;4119986;28;20023;-68
2021/05/27 06:43:27;;;;;;;7.30;5.90;;;15.10;99.90;;;14.34;96.75;101604.50;4119763;28;20026;-67
2021/05/27 06:45:28;;;;;;;12.18;6.45;;;15.20;99.90;;;14.49;94.62;101612.69;4120072;28;20118;-67
2021/05/27 06:47:29;;;;;;;7.18;6.18;;;15.30;99.90;;;14.63;94.45;101609.44;4120164;28;20113;-67
2021/05/27 06:49:30;;;;;;;6.10;5.28;;;15.40;99.90;;;14.63;95.04;101597.97;4120121;28;20525;-67
2021/05/27 06:51:33;;;;;;;8.57;5.25;;;15.50;99.90;;;14.84;94.74;101611.66;4119837;28;20053;-67
2021/05/27 06:53:34;;;;;;;6.88;5.82;;;15.70;99.90;;;15.06;93.55;101615.47;4119661;28;20109;-66
2021/05/27 06:55:37;;;;;;;7.13;5.60;;;15.80;99.90;;;15.14;92.57;101610.19;4120033;28;20062;-66
2021/05/27 06:57:38;;;;;;;6.93;5.63;;;16.00;99.90;;;15.23;92.65;101612.69;4120153;28;20077;-66
2021/05/27 06:59:39;;;;;;;7.75;6.22;;;16.10;99.90;;;15.35;92.41;101622.00;4119661;28;20031;-66
2021/05/27 07:01:40;;;;;;;6.70;4.70;;;16.20;99.90;;;15.40;91.64;101619.69;4119805;28;20051;-66
2021/05/27 07:03:41;;;;;;;7.47;5.47;;;16.40;99.90;;;15.37;91.09;101625.34;4119867;28;20078;-66
2021/05/27 07:05:42;;;;;;;10.68;5.97;;;16.40;99.90;;;15.43;89.94;101619.34;4119893;28;20109;-67
2021/05/27 07:07:43;;;;;;;8.13;5.28;;;16.50;99.90;;;15.59;87.06;101620.38;4119894;28;20042;-66
2021/05/27 07:09:44;;;;;;;7.03;5.25;;;16.60;99.90;;;15.48;88.28;101613.56;4119724;28;20038;-66
2021/05/27 07:11:46;;;;;;;9.90;5.90;;;16.60;99.90;;;15.38;88.11;101615.53;4119614;28;20035;-66
2021/05/27 07:13:47;;;;;;;8.07;5.53;;;16.50;99.90;;;15.38;88.53;101615.53;4119711;28;20569;-66
2021/05/27 07:15:48;;;;;;;11.07;6.97;;;16.50;99.90;;;15.42;87.84;101611.53;4119703;28;20031;-66
2021/05/27 07:17:50;;;;;;;7.55;5.80;;;16.50;99.90;;;15.74;86.74;101621.38;4119668;28;20393;-66
2021/05/27 07:19:52;;;;;;;7.70;5.68;;;16.60;99.90;;;15.88;86.05;101612.69;4119906;28;20506;-66
2021/05/27 07:21:54;;;;;;;12.25;6.07;;;16.80;99.90;;;15.89;85.30;101617.00;4119872;28;20030;-66
2021/05/27 07:23:54;;;;;;;7.15;6.07;;;16.90;99.90;;;16.00;85.32;101614.84;4119700;28;20030;-66
2021/05/27 07:25:55;;;;;;;9.02;6.47;;;17.10;99.90;;;15.98;85.62;101622.13;4119669;28;20395;-66
2021/05/27 07:27:57;;;;;;;7.00;5.07;;;17.20;99.90;;;15.90;83.81;101621.34;4119340;28;20055;-66
2021/05/27 07:29:59;;;;;;;6.88;5.72;;;17.20;99.90;;;16.02;83.57;101625.31;4119797;28;20041;-66
2021/05/27 07:32:01;;;;;;;5.30;3.85;;;17.30;99.90;;;16.20;83.96;101622.41;4119566;28;20505;-66
2021/05/27 07:34:02;;;;;;;6.40;5.63;;;17.40;99.90;;;16.26;82.75;101622.56;4119673;28;20501;-66
2021/05/27 07:36:04;;;;;;;5.30;4.72;;;17.50;99.90;;;16.44;82.71;101627.66;4119390;28;20090;-66
2021/05/27 07:38:05;;;;;;;4.72;4.13;;;17.60;99.90;;;16.65;81.47;101627.09;4119813;28;20394;-66
2021/05/27 07:40:08;;;;;;;5.90;3.80;;;17.80;99.90;;;16.74;81.08;101618.06;4119432;28;20095;-66
2021/05/27 07:42:10;;;;;;;9.88;5.72;;;17.90;99.90;;;16.40;82.59;101627.19;4119666;28;20487;-66
2021/05/27 07:44:11;;;;;;;7.03;5.18;;;17.90;99.90;;;16.37;80.77;101621.34;4119108;28;20045;-66
2021/05/27 07:46:12;;;;;;;6.00;4.93;;;17.90;99.90;;;16.70;80.88;101624.75;4119671;28;20351;-66
2021/05/27 07:48:13;;;;;;;5.70;4.32;;;18.00;99.90;;;16.93;80.20;101628.31;4119393;28;20027;-66
2021/05/27 07:50:20;;;;;;;5.63;3.72;;;18.20;99.90;;;16.90;78.69;101623.31;4119667;28;20113;-66
2021/05/27 07:52:21;;;;;;;6.22;3.25;;;18.30;99.90;;;17.04;78.09;101625.22;4119217;28;20058;-67
2021/05/27 07:54:23;;;;;;;3.47;2.83;;;18.40;99.90;;;17.08;78.91;101624.69;4118256;28;20030;-67
2021/05/27 07:56:25;;;;;;;4.20;3.40;;;18.40;99.90;;;17.13;77.41;101622.34;4119530;28;20110;-67
2021/05/27 07:58:26;;;;;;;5.93;3.97;;;18.40;99.90;;;16.63;76.27;101624.63;4119019;28;20065;-66
2021/05/27 08:00:27;;;;;;;4.13;3.33;;;18.30;99.90;;;16.49;78.96;101631.47;4103571;28;20027;-66
2021/05/27 08:02:28;;;;;;;6.85;3.90;;;18.10;99.90;;;16.42;80.47;101633.19;4103442;28;20037;-66
2021/05/27 08:04:29;;;;;;;5.43;3.33;;;17.90;99.90;;;16.44;79.06;101636.50;4103027;28;20074;-66
2021/05/27 08:06:30;;;;;;;9.45;4.03;;;17.80;99.90;;;16.60;78.99;101624.97;4103401;28;20036;-66
2021/05/27 08:08:32;;;;;;;5.10;3.65;;;17.70;99.90;;;16.33;79.55;101631.56;4103379;28;20057;-66
2021/05/27 08:10:33;;;;;;;4.00;3.17;;;17.70;99.90;;;16.35;81.01;101634.84;4119381;28;20031;-66
2021/05/27 08:12:35;;;;;;;5.90;3.67;;;17.60;99.90;;;16.47;79.67;101625.50;4119199;28;20038;-66
2021/05/27 08:14:37;;;;;;;4.78;3.22;;;17.70;99.90;;;16.63;79.70;101629.13;4119112;28;20545;-66
2021/05/27 08:16:39;;;;;;;4.05;2.97;;;17.90;99.90;;;16.53;79.42;101634.63;4119337;28;20041;-66
2021/05/27 08:18:40;;;;;;;6.32;3.00;;;18.10;99.90;;;16.80;78.09;101628.88;4119543;28;20087;-66
2021/05/27 08:20:41;;;;;;;3.20;2.75;;;18.20;99.90;;;16.82;77.22;101634.00;4119219;28;20033;-66
2021/05/27 08:22:42;;;;;;;6.07;2.92;;;18.30;99.90;;;16.48;78.50;101636.97;4119234;28;20397;-66
2021/05/27 08:24:44;;;;;;;4.20;3.25;;;18.40;99.90;;;16.83;77.97;101639.19;4121708;28;20062;-66
2021/05/27 08:26:46;;;;;;;4.32;2.75;;;18.50;99.90;;;17.20;76.11;101633.13;4122356;28;20569;-66